Time;durP1;ratioP1;P1;durP2;ratioP2;P2;SDS_P1;SDS_P2;PMS_P1;PMS_P2;Temp;Humidity;BMP_temperature;BMP_pressure;BME280_temperature;BME280_humidity;BME280_pressure;Samples;Min_cycle;Max_cycle;Signal;HPM_P1;HPM_P2
2023/12/05 00:01:39;;;;;;;38.57;17.40;;;-0.40;99.90;;;;;;5072725;28;20227;-66
2023/12/05 00:04:07;;;;;;;39.83;17.63;;;-0.40;99.90;;;;;;5079170;28;20286;-69
2023/12/05 00:06:34;;;;;;;28.73;14.23;;;-0.40;99.90;;;;;;5055005;28;20201;-68
2023/12/05 00:09:01;;;;;;;33.03;15.47;;;-0.40;99.90;;;;;;5072611;28;20205;-66
2023/12/05 00:11:28;;;;;;;41.23;17.67;;;-0.50;99.90;;;;;;5072614;28;20208;-67
2023/12/05 00:13:55;;;;;;;41.20;17.63;;;-0.40;99.90;;;;;;5054973;28;20228;-67
2023/12/05 00:16:23;;;;;;;39.33;16.53;;;-0.50;99.90;;;;;;5074443;28;20185;-67
2023/12/05 00:18:51;;;;;;;39.97;16.93;;;-0.50;99.90;;;;;;5070965;28;20197;-67
2023/12/05 00:21:18;;;;;;;44.33;18.40;;;-0.60;99.90;;;;;;5055015;28;20691;-67
2023/12/05 00:23:45;;;;;;;34.07;15.27;;;-0.60;99.90;;;;;;5054881;28;20203;-66
2023/12/05 00:26:12;;;;;;;38.70;17.03;;;-0.70;99.90;;;;;;5072648;28;20276;-67
2023/12/05 00:28:39;;;;;;;37.00;16.50;;;-0.60;99.90;;;;;;5071962;28;20250;-67
2023/12/05 00:31:06;;;;;;;33.70;15.40;;;-0.60;99.90;;;;;;5070850;28;20250;-67
2023/12/05 00:33:35;;;;;;;40.93;16.83;;;-0.60;99.90;;;;;;5067566;28;20276;-67
2023/12/05 00:36:02;;;;;;;37.17;16.50;;;-0.50;99.90;;;;;;5062880;28;20266;-67
2023/12/05 00:38:29;;;;;;;39.77;16.30;;;-0.60;99.90;;;;;;5068810;28;20207;-67
2023/12/05 00:40:59;;;;;;;31.57;14.17;;;-0.50;99.90;;;;;;5072371;28;20189;-67
2023/12/05 00:43:26;;;;;;;35.63;16.13;;;-0.60;99.90;;;;;;5072433;28;20652;-67
2023/12/05 00:45:55;;;;;;;29.90;13.17;;;-0.60;99.90;;;;;;5071906;28;20261;-67
2023/12/05 00:48:22;;;;;;;32.90;14.43;;;-0.60;99.90;;;;;;5071726;28;20193;-67
2023/12/05 00:50:51;;;;;;;33.23;14.03;;;-0.60;99.90;;;;;;5071994;28;20266;-67
2023/12/05 00:53:18;;;;;;;32.67;14.50;;;-0.60;99.90;;;;;;5071872;28;20189;-67
2023/12/05 00:55:45;;;;;;;20.27;10.03;;;-0.60;99.90;;;;;;5072045;28;20205;-67
2023/12/05 00:58:12;;;;;;;31.67;14.20;;;-0.60;99.90;;;;;;5071868;28;20205;-67
2023/12/05 01:00:39;;;;;;;29.00;14.20;;;-0.60;99.90;;;;;;5072513;28;20197;-67
2023/12/05 01:03:06;;;;;;;33.00;14.13;;;-0.60;99.90;;;;;;5071753;28;21004;-67
2023/12/05 01:05:34;;;;;;;34.00;14.80;;;-0.50;99.90;;;;;;5071790;28;20679;-67
2023/12/05 01:08:02;;;;;;;26.77;12.47;;;-0.50;99.90;;;;;;5071582;28;20288;-67
2023/12/05 01:10:29;;;;;;;41.47;17.50;;;-0.50;99.90;;;;;;5071883;28;20204;-68
2023/12/05 01:12:56;;;;;;;35.23;15.90;;;-0.40;99.90;;;;;;5071966;28;20205;-67
2023/12/05 01:15:23;;;;;;;35.33;14.83;;;-0.40;99.90;;;;;;5053697;28;20221;-67
2023/12/05 01:17:52;;;;;;;29.60;13.80;;;-0.30;99.90;;;;;;5070925;28;20665;-68
2023/12/05 01:20:19;;;;;;;33.90;14.00;;;-0.40;99.90;;;;;;5053491;28;20274;-67
2023/12/05 01:22:46;;;;;;;44.77;17.70;;;-0.50;99.90;;;;;;5071352;28;20267;-67
2023/12/05 01:25:15;;;;;;;40.27;17.03;;;-0.40;99.90;;;;;;5071649;28;20296;-67
2023/12/05 01:27:42;;;;;;;33.40;14.77;;;-0.40;99.90;;;;;;5055108;28;20220;-67
2023/12/05 01:30:09;;;;;;;38.40;15.67;;;-0.50;99.90;;;;;;5059896;28;20248;-67
2023/12/05 01:32:36;;;;;;;33.53;14.40;;;-0.50;99.90;;;;;;5050408;28;20607;-67
2023/12/05 01:35:04;;;;;;;44.77;18.70;;;-0.50;99.90;;;;;;5069676;28;20217;-67
2023/12/05 01:37:31;;;;;;;34.87;15.33;;;-0.50;99.90;;;;;;5069690;28;20197;-67
2023/12/05 01:39:58;;;;;;;39.17;15.57;;;-0.50;99.90;;;;;;5071585;28;20205;-67
2023/12/05 01:42:26;;;;;;;34.53;15.03;;;-0.40;99.90;;;;;;5052948;28;20205;-67
2023/12/05 01:44:53;;;;;;;28.27;13.23;;;-0.40;99.90;;;;;;5071130;28;20678;-67
2023/12/05 01:47:21;;;;;;;30.13;14.70;;;-0.50;99.90;;;;;;5067762;28;20617;-68
2023/12/05 01:49:48;;;;;;;38.17;16.60;;;-0.50;99.90;;;;;;5070849;28;20212;-67
2023/12/05 01:52:17;;;;;;;32.13;13.73;;;-0.50;99.90;;;;;;5066924;28;20197;-68
2023/12/05 01:54:44;;;;;;;32.33;13.50;;;-0.50;99.90;;;;;;5053636;28;20220;-67
2023/12/05 01:57:12;;;;;;;34.70;14.50;;;-0.50;99.90;;;;;;5067423;28;20221;-67
2023/12/05 01:59:40;;;;;;;41.63;17.47;;;-0.50;99.90;;;;;;5070987;28;20283;-69
2023/12/05 02:02:08;;;;;;;39.90;16.90;;;-0.40;99.90;;;;;;5069505;28;20201;-67
2023/12/05 02:04:35;;;;;;;44.67;18.07;;;-0.50;99.90;;;;;;5053275;28;20234;-67
2023/12/05 02:07:04;;;;;;;37.67;16.73;;;-0.40;99.90;;;;;;5070251;28;20193;-68
2023/12/05 02:09:32;;;;;;;44.03;18.93;;;-0.40;99.90;;;;;;5071486;28;20232;-67
2023/12/05 02:11:59;;;;;;;49.67;20.93;;;-0.40;99.90;;;;;;5052071;28;20637;-67
2023/12/05 02:14:26;;;;;;;45.70;19.83;;;-0.30;99.90;;;;;;5071591;28;20193;-67
2023/12/05 02:17:02;;;;;;;46.80;19.53;;;-0.30;99.90;;;;;;5067729;28;20266;-67
2023/12/05 02:19:42;;;;;;;40.47;18.07;;;-0.30;99.90;;;;;;5061632;28;20203;-67
2023/12/05 02:22:26;;;;;;;40.43;17.07;;;-0.30;99.90;;;;;;5069050;28;20246;-67
2023/12/05 02:25:03;;;;;;;45.23;19.03;;;-0.20;99.90;;;;;;5071086;28;20989;-67
2023/12/05 02:27:38;;;;;;;46.67;19.23;;;-0.20;99.90;;;;;;5058641;28;20204;-67
2023/12/05 02:30:05;;;;;;;46.47;19.77;;;-0.30;99.90;;;;;;5041971;28;20212;-67
2023/12/05 02:32:33;;;;;;;44.40;17.80;;;-0.20;99.90;;;;;;5070100;28;20220;-67
2023/12/05 02:35:00;;;;;;;43.57;18.43;;;-0.20;99.90;;;;;;5065271;28;20212;-67
2023/12/05 02:37:34;;;;;;;43.80;17.90;;;-0.20;99.90;;;;;;5068982;28;20186;-67
2023/12/05 02:40:11;;;;;;;47.37;18.87;;;-0.10;99.90;;;;;;5049708;28;20728;-67
2023/12/05 02:42:40;;;;;;;42.23;17.87;;;-0.10;99.90;;;;;;5070223;28;20196;-67
2023/12/05 02:45:19;;;;;;;56.03;22.77;;;-0.10;99.90;;;;;;5069707;28;20275;-67
2023/12/05 02:47:48;;;;;;;61.40;23.33;;;0.00;99.90;;;;;;5052760;28;20254;-67
2023/12/05 02:50:16;;;;;;;56.17;22.47;;;-0.10;99.90;;;;;;5054898;28;20666;-67
2023/12/05 02:52:43;;;;;;;47.67;20.00;;;0.00;99.90;;;;;;5070076;28;20193;-67
2023/12/05 02:55:10;;;;;;;47.30;19.70;;;0.00;99.90;;;;;;5074765;28;20684;-66
2023/12/05 02:57:39;;;;;;;57.03;22.53;;;0.10;99.90;;;;;;5074810;28;20193;-67
2023/12/05 03:00:08;;;;;;;58.03;24.83;;;0.00;99.90;;;;;;5075815;28;20200;-67
2023/12/05 03:02:35;;;;;;;64.57;26.93;;;0.00;99.90;;;;;;5074548;28;20233;-67
2023/12/05 03:05:02;;;;;;;60.47;25.30;;;0.00;99.90;;;;;;5074223;28;20607;-67
2023/12/05 03:07:29;;;;;;;56.20;24.17;;;0.00;99.90;;;;;;5056315;28;20197;-67
2023/12/05 03:09:57;;;;;;;50.43;22.80;;;0.00;99.90;;;;;;5074632;28;20193;-67
2023/12/05 03:12:24;;;;;;;45.33;19.60;;;-0.10;99.90;;;;;;5065537;28;20203;-67
2023/12/05 03:14:52;;;;;;;42.23;19.13;;;-0.10;99.90;;;;;;5075060;28;20224;-67
2023/12/05 03:17:19;;;;;;;64.93;27.57;;;-0.10;99.90;;;;;;5073243;28;20458;-67
2023/12/05 03:19:46;;;;;;;69.37;28.90;;;-0.10;99.90;;;;;;5065381;28;20641;-67
2023/12/05 03:22:13;;;;;;;67.70;28.60;;;0.00;99.90;;;;;;5073177;28;20706;-67
2023/12/05 03:24:40;;;;;;;65.67;28.40;;;0.00;99.90;;;;;;5074134;28;20193;-67
2023/12/05 03:27:07;;;;;;;60.27;25.97;;;-0.10;99.90;;;;;;5073362;28;20246;-67
2023/12/05 03:29:34;;;;;;;54.97;23.80;;;-0.10;99.90;;;;;;5073368;28;20250;-67
2023/12/05 03:32:03;;;;;;;47.23;21.00;;;-0.20;99.90;;;;;;5062958;28;20229;-67
2023/12/05 03:34:30;;;;;;;45.43;20.00;;;-0.20;99.90;;;;;;5074266;28;20193;-67
2023/12/05 03:36:57;;;;;;;43.37;19.50;;;-0.10;99.90;;;;;;5053940;28;20209;-67
2023/12/05 03:39:24;;;;;;;60.97;25.80;;;-0.30;99.90;;;;;;5045962;28;20205;-67
2023/12/05 03:41:51;;;;;;;58.30;23.83;;;-0.30;99.90;;;;;;5054721;28;20296;-67
2023/12/05 03:44:18;;;;;;;59.10;24.90;;;-0.20;99.90;;;;;;5050524;28;20311;-68
2023/12/05 03:46:45;;;;;;;62.97;26.17;;;-0.30;99.90;;;;;;5074988;28;20185;-67
2023/12/05 03:49:14;;;;;;;58.70;26.33;;;-0.20;99.90;;;;;;5061580;28;20274;-67
2023/12/05 03:51:41;;;;;;;62.33;26.70;;;-0.20;99.90;;;;;;5054242;28;20233;-67
2023/12/05 03:54:08;;;;;;;64.93;27.40;;;-0.20;99.90;;;;;;5072771;28;20220;-67
2023/12/05 03:56:35;;;;;;;55.33;23.63;;;-0.20;99.90;;;;;;5081019;28;20292;-67
2023/12/05 03:59:02;;;;;;;51.40;23.43;;;-0.30;99.90;;;;;;5074388;28;20189;-66
2023/12/05 04:01:29;;;;;;;51.87;23.00;;;-0.40;99.90;;;;;;5055096;28;20197;-67
2023/12/05 04:03:56;;;;;;;49.80;22.97;;;-0.40;99.90;;;;;;5054246;28;20224;-66
2023/12/05 04:06:25;;;;;;;53.30;23.93;;;-0.40;99.90;;;;;;5073131;28;20706;-66
2023/12/05 04:08:52;;;;;;;54.50;22.53;;;-0.40;99.90;;;;;;5072241;28;20616;-67
2023/12/05 04:11:29;;;;;;;49.17;22.33;;;-0.40;99.90;;;;;;5073021;28;20228;-67
2023/12/05 04:13:56;;;;;;;41.60;19.17;;;-0.50;99.90;;;;;;5073145;28;20279;-67
2023/12/05 04:16:23;;;;;;;36.00;16.97;;;-0.50;99.90;;;;;;5072829;28;20601;-67
2023/12/05 04:18:50;;;;;;;44.47;19.17;;;-0.60;99.90;;;;;;5069310;28;20204;-67
2023/12/05 04:21:18;;;;;;;50.67;21.80;;;-0.60;99.90;;;;;;5075897;28;20201;-67
2023/12/05 04:23:47;;;;;;;45.20;20.03;;;-0.60;99.90;;;;;;5069146;28;20646;-67
2023/12/05 04:26:15;;;;;;;50.53;21.87;;;-0.50;99.90;;;;;;5072890;28;20675;-67
2023/12/05 04:28:42;;;;;;;48.57;21.30;;;-0.60;99.90;;;;;;5073576;28;20209;-67
2023/12/05 04:31:09;;;;;;;45.80;19.63;;;-0.60;99.90;;;;;;5049532;28;20201;-67
2023/12/05 04:33:37;;;;;;;38.47;17.57;;;-0.60;99.90;;;;;;5072098;28;20205;-67
2023/12/05 04:36:05;;;;;;;39.33;17.43;;;-0.60;99.90;;;;;;5054828;28;20217;-67
2023/12/05 04:38:32;;;;;;;42.13;18.60;;;-0.60;99.90;;;;;;5060479;28;20224;-67
2023/12/05 04:41:00;;;;;;;42.07;18.07;;;-0.50;99.90;;;;;;5053411;28;20296;-67
2023/12/05 04:43:27;;;;;;;44.20;18.50;;;-0.50;99.90;;;;;;5066085;28;20280;-68
2023/12/05 04:45:54;;;;;;;47.53;20.40;;;-0.50;99.90;;;;;;5072216;28;20276;-68
2023/12/05 04:48:21;;;;;;;57.10;23.53;;;-0.40;99.90;;;;;;5053500;28;20197;-67
2023/12/05 04:50:48;;;;;;;54.03;21.80;;;-0.40;99.90;;;;;;5072019;28;20274;-67
2023/12/05 04:53:15;;;;;;;45.10;19.43;;;-0.40;99.90;;;;;;5070086;28;20208;-68
2023/12/05 04:55:42;;;;;;;37.07;17.53;;;-0.30;99.90;;;;;;5072111;28;20244;-67
2023/12/05 04:58:11;;;;;;;44.43;19.67;;;-0.40;99.90;;;;;;5071718;28;20193;-67
2023/12/05 05:00:38;;;;;;;44.13;19.03;;;-0.40;99.90;;;;;;5064948;28;20382;-67
2023/12/05 05:03:05;;;;;;;36.40;17.00;;;-0.40;99.90;;;;;;5056630;28;20731;-67
2023/12/05 05:05:32;;;;;;;42.73;18.23;;;-0.40;99.90;;;;;;5071735;28;20193;-67
2023/12/05 05:07:59;;;;;;;50.00;21.43;;;-0.40;99.90;;;;;;5075075;28;20213;-67
2023/12/05 05:10:26;;;;;;;45.57;20.33;;;-0.40;99.90;;;;;;5074480;28;20236;-67
2023/12/05 05:12:53;;;;;;;41.90;18.23;;;-0.30;99.90;;;;;;5071945;28;20224;-67
2023/12/05 05:15:22;;;;;;;36.30;17.23;;;-0.30;99.90;;;;;;5072366;28;20541;-67
2023/12/05 05:17:49;;;;;;;33.93;15.00;;;-0.40;99.90;;;;;;5078560;28;20205;-67
2023/12/05 05:20:16;;;;;;;40.60;18.60;;;-0.40;99.90;;;;;;5067288;28;20221;-67
2023/12/05 05:22:43;;;;;;;46.57;19.90;;;-0.40;99.90;;;;;;5071552;28;20607;-67
2023/12/05 05:25:10;;;;;;;42.20;18.10;;;-0.40;99.90;;;;;;5071220;28;20189;-67
2023/12/05 05:27:37;;;;;;;33.90;14.87;;;-0.30;99.90;;;;;;5068722;28;20197;-67
2023/12/05 05:30:05;;;;;;;47.60;20.00;;;-0.30;99.90;;;;;;5069824;28;20189;-67
2023/12/05 05:32:33;;;;;;;50.83;21.23;;;-0.30;99.90;;;;;;5065912;28;20693;-67
2023/12/05 05:35:00;;;;;;;53.80;21.63;;;-0.30;99.90;;;;;;5071522;28;20192;-67
2023/12/05 05:37:27;;;;;;;50.47;21.23;;;-0.20;99.90;;;;;;5052994;28;20233;-67
2023/12/05 05:39:54;;;;;;;44.33;19.97;;;-0.30;99.90;;;;;;5053716;28;20327;-67
2023/12/05 05:42:21;;;;;;;39.23;18.10;;;-0.30;99.90;;;;;;5070924;28;20223;-67
2023/12/05 05:44:48;;;;;;;33.47;14.83;;;-0.40;99.90;;;;;;5071921;28;20221;-67
2023/12/05 05:47:16;;;;;;;42.73;18.40;;;-0.40;99.90;;;;;;5070327;28;20193;-66
2023/12/05 05:49:44;;;;;;;37.77;16.07;;;-0.40;99.90;;;;;;5071477;28;20193;-67
2023/12/05 05:52:11;;;;;;;49.53;21.50;;;-0.40;99.90;;;;;;5052883;28;20251;-68
2023/12/05 05:54:38;;;;;;;47.57;19.63;;;-0.40;99.90;;;;;;5071520;28;20197;-67
2023/12/05 05:57:06;;;;;;;46.10;18.57;;;-0.40;99.90;;;;;;5044731;28;20213;-67
2023/12/05 05:59:33;;;;;;;52.40;19.50;;;-0.30;99.90;;;;;;5070933;28;20197;-67
2023/12/05 06:02:00;;;;;;;56.83;20.50;;;-0.40;99.90;;;;;;5070889;28;20197;-67
2023/12/05 06:04:27;;;;;;;43.43;19.00;;;-0.40;99.90;;;;;;5070670;28;20674;-67
2023/12/05 06:06:55;;;;;;;47.00;20.90;;;-0.40;99.90;;;;;;5071207;28;20189;-67
2023/12/05 06:09:22;;;;;;;48.10;20.73;;;-0.40;99.90;;;;;;5070642;28;20223;-67
2023/12/05 06:11:49;;;;;;;43.10;18.73;;;-0.30;99.90;;;;;;5065792;28;20742;-67
2023/12/05 06:14:16;;;;;;;46.60;20.10;;;-0.40;99.90;;;;;;5071034;28;20280;-67
2023/12/05 06:16:43;;;;;;;51.87;22.13;;;-0.40;99.90;;;;;;5068774;28;20259;-68
2023/12/05 06:19:10;;;;;;;56.70;22.50;;;-0.40;99.90;;;;;;5068511;28;20271;-68
2023/12/05 06:21:37;;;;;;;50.83;20.97;;;-0.40;99.90;;;;;;5071005;28;20228;-68
2023/12/05 06:24:08;;;;;;;49.07;21.03;;;-0.40;99.90;;;;;;5069554;28;20197;-68
2023/12/05 06:26:35;;;;;;;43.17;18.80;;;-0.40;99.90;;;;;;5058201;28;20189;-68
2023/12/05 06:29:05;;;;;;;47.40;19.40;;;-0.50;99.90;;;;;;5069553;28;20221;-68
2023/12/05 06:31:32;;;;;;;46.90;19.87;;;-0.60;99.90;;;;;;5050557;28;20201;-68
2023/12/05 06:34:00;;;;;;;56.30;23.47;;;-0.50;99.90;;;;;;5051243;28;20200;-68
2023/12/05 06:36:28;;;;;;;51.03;21.37;;;-0.60;99.90;;;;;;5064266;28;20707;-68
2023/12/05 06:38:55;;;;;;;51.97;22.03;;;-0.60;99.90;;;;;;5056292;28;20213;-68
2023/12/05 06:41:23;;;;;;;53.93;22.07;;;-0.60;99.90;;;;;;5061874;28;20224;-68
2023/12/05 06:43:51;;;;;;;40.07;17.83;;;-0.70;99.90;;;;;;5070705;28;20238;-68
2023/12/05 06:46:18;;;;;;;39.60;16.63;;;-0.70;99.90;;;;;;5050411;28;20292;-68
2023/12/05 06:48:46;;;;;;;32.33;14.60;;;-0.80;99.90;;;;;;5051598;28;20221;-67
2023/12/05 06:51:18;;;;;;;31.80;14.93;;;-0.90;99.90;;;;;;5058296;28;20197;-67
2023/12/05 06:53:46;;;;;;;44.63;18.73;;;-0.90;99.90;;;;;;5061244;28;20667;-67
2023/12/05 06:56:15;;;;;;;43.07;18.87;;;-0.90;99.90;;;;;;5067189;28;20242;-67
2023/12/05 06:58:43;;;;;;;38.00;17.20;;;-0.80;99.90;;;;;;5067573;28;20643;-67
2023/12/05 07:01:10;;;;;;;37.63;17.37;;;-0.80;99.90;;;;;;5068230;28;20220;-67
2023/12/05 07:03:38;;;;;;;33.37;15.77;;;-1.30;99.90;;;;;;5065439;28;20236;-67
2023/12/05 07:06:06;;;;;;;33.57;15.30;;;-0.80;99.90;;;;;;5066619;28;20185;-67
2023/12/05 07:08:33;;;;;;;44.03;17.37;;;-0.90;99.90;;;;;;5063379;28;20192;-67
2023/12/05 07:11:01;;;;;;;47.50;20.07;;;-0.90;99.90;;;;;;5067792;28;20196;-67
2023/12/05 07:13:28;;;;;;;52.60;22.53;;;-0.90;99.90;;;;;;5051083;28;20217;-67
2023/12/05 07:15:57;;;;;;;46.60;20.33;;;-0.80;99.90;;;;;;5069615;28;20255;-68
2023/12/05 07:18:24;;;;;;;45.97;19.17;;;-0.80;99.90;;;;;;5068120;28;20223;-67
2023/12/05 07:20:51;;;;;;;41.00;18.33;;;-0.80;99.90;;;;;;5069490;28;20197;-67
2023/12/05 07:23:18;;;;;;;33.17;14.90;;;-0.80;99.90;;;;;;5068835;28;20193;-67
2023/12/05 07:25:45;;;;;;;31.43;14.23;;;-0.80;99.90;;;;;;5063433;28;20222;-67
2023/12/05 07:28:12;;;;;;;37.90;15.93;;;-0.80;99.90;;;;;;5069242;28;20185;-68
2023/12/05 07:30:42;;;;;;;40.20;16.63;;;-0.80;99.90;;;;;;5069024;28;20189;-67
2023/12/05 07:33:10;;;;;;;37.00;16.70;;;-0.80;99.90;;;;;;5050722;28;20247;-68
2023/12/05 07:35:38;;;;;;;38.80;17.03;;;-0.80;99.90;;;;;;5038081;28;20202;-67
2023/12/05 07:38:06;;;;;;;36.67;15.43;;;-0.80;99.90;;;;;;5043646;28;20699;-67
2023/12/05 07:40:33;;;;;;;43.97;18.20;;;-0.80;99.90;;;;;;5075292;28;20180;-67
2023/12/05 07:43:00;;;;;;;45.80;19.67;;;-0.80;99.90;;;;;;5071452;28;20602;-67
2023/12/05 07:45:27;;;;;;;36.90;15.97;;;-0.80;99.90;;;;;;5060863;28;20610;-68
2023/12/05 07:47:54;;;;;;;37.43;15.53;;;-0.70;99.90;;;;;;5072958;28;20693;-67
2023/12/05 07:50:23;;;;;;;42.23;16.23;;;-0.70;99.90;;;;;;5054924;28;20213;-67
2023/12/05 07:52:50;;;;;;;43.13;17.67;;;-0.80;99.90;;;;;;5066210;28;20220;-67
2023/12/05 07:55:18;;;;;;;37.40;15.80;;;-0.80;99.90;;;;;;5058067;28;20220;-67
2023/12/05 07:57:45;;;;;;;38.93;17.07;;;-0.80;99.90;;;;;;5076042;28;20221;-68
2023/12/05 08:00:16;;;;;;;37.17;16.03;;;-0.80;99.90;;;;;;5069001;28;20189;-68
2023/12/05 08:02:43;;;;;;;39.27;17.53;;;-0.80;99.90;;;;;;5050693;28;20232;-66
2023/12/05 08:05:11;;;;;;;43.03;17.50;;;-0.80;99.90;;;;;;5060667;28;20221;-67
2023/12/05 08:07:39;;;;;;;40.00;16.40;;;0.10;99.90;;;;;;5048671;28;20197;-67
2023/12/05 08:10:08;;;;;;;42.43;18.10;;;-0.80;99.90;;;;;;5053129;28;20202;-67
2023/12/05 08:12:35;;;;;;;44.93;18.50;;;-0.80;99.90;;;;;;5051694;28;20200;-67
2023/12/05 08:15:03;;;;;;;35.73;16.27;;;-0.80;99.90;;;;;;5046542;28;20656;-67
2023/12/05 08:17:30;;;;;;;36.10;16.30;;;-0.90;99.90;;;;;;5041234;28;20297;-67
2023/12/05 08:19:57;;;;;;;43.70;17.37;;;-0.90;99.90;;;;;;5027849;28;20202;-67
2023/12/05 08:22:25;;;;;;;38.17;17.70;;;-0.90;99.90;;;;;;5049744;28;20213;-67
2023/12/05 08:24:54;;;;;;;42.90;18.77;;;-0.80;99.90;;;;;;5052889;28;20775;-67
2023/12/05 08:27:21;;;;;;;36.70;16.23;;;-0.80;99.90;;;;;;5050488;28;20185;-67
2023/12/05 08:29:48;;;;;;;49.33;20.70;;;-0.80;99.90;;;;;;5051089;28;20197;-66
2023/12/05 08:32:15;;;;;;;51.07;21.53;;;-0.80;99.90;;;;;;5024545;28;20206;-67
2023/12/05 08:34:42;;;;;;;48.33;21.30;;;-0.80;99.90;;;;;;5047643;28;20637;-67
2023/12/05 08:37:09;;;;;;;48.40;21.13;;;-0.70;99.90;;;;;;5042049;28;20546;-66
2023/12/05 08:39:36;;;;;;;46.40;20.17;;;-0.60;99.90;;;;;;5041317;28;20205;-67
2023/12/05 08:42:05;;;;;;;36.43;16.30;;;-0.60;99.90;;;;;;5046657;28;20206;-67
2023/12/05 08:44:32;;;;;;;30.33;14.03;;;-0.50;99.90;;;;;;5049472;28;20723;-67
2023/12/05 08:46:59;;;;;;;50.53;21.57;;;-0.40;99.90;;;;;;5048117;28;20293;-67
2023/12/05 08:49:26;;;;;;;51.73;20.40;;;-0.30;99.90;;;;;;5050125;28;20202;-67
2023/12/05 08:51:54;;;;;;;56.50;22.93;;;-0.30;99.90;;;;;;5049637;28;20240;-67
2023/12/05 08:54:21;;;;;;;59.00;23.70;;;-0.20;99.90;;;;;;5047924;28;20198;-67
2023/12/05 08:56:48;;;;;;;51.07;21.77;;;-0.20;99.90;;;;;;5049378;28;20201;-67
2023/12/05 08:59:17;;;;;;;42.73;18.47;;;-0.20;99.90;;;;;;5049901;28;20197;-67
2023/12/05 09:01:48;;;;;;;42.87;19.00;;;-0.20;99.90;;;;;;5046059;28;20237;-67
2023/12/05 09:04:15;;;;;;;55.30;23.70;;;-0.20;99.90;;;;;;5049430;28;20324;-67
2023/12/05 09:06:42;;;;;;;52.77;23.27;;;-0.20;99.90;;;;;;5048292;28;20198;-67
2023/12/05 09:09:09;;;;;;;47.47;21.93;;;-0.20;99.90;;;;;;5043620;28;20193;-67
2023/12/05 09:11:38;;;;;;;47.73;21.27;;;-0.10;99.90;;;;;;5048115;28;20244;-67
2023/12/05 09:14:06;;;;;;;47.63;20.07;;;-0.10;99.90;;;;;;5049986;28;20205;-67
2023/12/05 09:16:34;;;;;;;58.27;23.83;;;0.10;99.90;;;;;;5048879;28;20222;-67
2023/12/05 09:19:02;;;;;;;57.10;23.80;;;0.10;99.90;;;;;;5046885;28;20206;-67
2023/12/05 09:21:29;;;;;;;51.20;22.87;;;0.20;99.80;;;;;;5041138;28;20205;-67
2023/12/05 09:23:56;;;;;;;52.47;22.53;;;0.30;99.70;;;;;;5049585;28;20296;-67
2023/12/05 09:26:23;;;;;;;57.50;24.70;;;0.30;99.70;;;;;;5047828;28;20527;-67
2023/12/05 09:28:50;;;;;;;51.00;21.97;;;0.30;99.60;;;;;;5047510;28;20285;-67
2023/12/05 09:31:17;;;;;;;51.80;21.67;;;0.30;99.50;;;;;;5048606;28;20280;-68
2023/12/05 09:33:46;;;;;;;53.60;23.00;;;0.30;99.50;;;;;;5047144;28;20255;-67
2023/12/05 09:36:13;;;;;;;59.33;23.60;;;0.20;99.30;;;;;;5043922;28;20664;-67
2023/12/05 09:38:40;;;;;;;50.37;21.43;;;0.20;99.10;;;;;;5043437;28;20264;-67
2023/12/05 09:41:08;;;;;;;51.80;22.37;;;0.20;99.10;;;;;;5049383;28;20275;-67
2023/12/05 09:43:37;;;;;;;45.70;19.53;;;0.30;99.00;;;;;;5042825;28;20289;-67
2023/12/05 09:46:08;;;;;;;39.20;18.20;;;0.40;99.10;;;;;;5044898;28;20213;-67
2023/12/05 09:48:41;;;;;;;43.87;18.13;;;0.50;99.10;;;;;;5038413;28;20194;-68
2023/12/05 09:51:10;;;;;;;44.87;19.43;;;0.50;99.10;;;;;;5047543;28;20233;-68
2023/12/05 09:53:37;;;;;;;43.60;19.53;;;0.60;99.10;;;;;;5043821;28;20552;-67
2023/12/05 09:56:05;;;;;;;55.50;21.83;;;0.80;99.00;;;;;;5049478;28;20284;-67
2023/12/05 09:58:33;;;;;;;51.97;22.07;;;0.90;99.00;;;;;;5047695;28;20206;-67
2023/12/05 10:01:02;;;;;;;50.87;21.67;;;1.20;99.00;;;;;;5049566;28;20229;-67
2023/12/05 10:03:34;;;;;;;52.63;22.43;;;1.60;98.70;;;;;;5040810;28;20283;-67
2023/12/05 10:06:06;;;;;;;47.23;19.90;;;1.90;98.10;;;;;;5047179;28;20197;-67
2023/12/05 10:08:35;;;;;;;47.53;19.07;;;2.30;97.80;;;;;;5045056;28;20236;-67
2023/12/05 10:11:04;;;;;;;38.50;17.00;;;2.70;97.30;;;;;;5036486;28;20239;-68
2023/12/05 10:13:31;;;;;;;36.10;15.93;;;2.80;96.70;;;;;;5049010;28;20289;-67
2023/12/05 10:16:00;;;;;;;45.20;18.67;;;2.60;96.60;;;;;;5049248;28;20249;-68
2023/12/05 10:18:28;;;;;;;44.60;19.10;;;2.50;96.40;;;;;;5038851;28;20744;-68
2023/12/05 10:20:55;;;;;;;42.60;17.80;;;2.50;96.40;;;;;;5048278;28;20197;-67
2023/12/05 10:23:22;;;;;;;43.33;17.90;;;2.60;96.70;;;;;;5047857;28;20205;-68
2023/12/05 10:25:51;;;;;;;35.83;16.70;;;2.70;96.70;;;;;;5048984;28;20193;-68
2023/12/05 10:28:19;;;;;;;58.67;22.57;;;2.90;96.40;;;;;;5047960;28;20193;-68
2023/12/05 10:30:46;;;;;;;47.57;19.60;;;2.90;95.50;;;;;;5046945;28;21045;-67
2023/12/05 10:33:14;;;;;;;41.30;17.77;;;2.90;95.30;;;;;;5047546;28;20269;-67
2023/12/05 10:35:42;;;;;;;46.93;19.00;;;2.70;95.30;;;;;;5056215;28;20301;-67
2023/12/05 10:38:10;;;;;;;51.47;20.57;;;2.80;95.60;;;;;;5054183;28;20575;-68
2023/12/05 10:40:52;;;;;;;55.33;23.00;;;2.90;95.40;;;;;;5047196;28;20194;-67
2023/12/05 10:43:20;;;;;;;49.23;20.37;;;3.00;95.10;;;;;;5041657;28;20197;-67
2023/12/05 10:45:48;;;;;;;43.80;18.40;;;3.00;94.90;;;;;;5040470;28;20221;-67
2023/12/05 10:48:16;;;;;;;46.37;18.33;;;2.70;94.80;;;;;;5047330;28;20240;-67
2023/12/05 10:50:45;;;;;;;45.73;19.10;;;2.70;95.00;;;;;;5046854;28;20612;-68
2023/12/05 10:53:13;;;;;;;40.73;16.93;;;2.50;94.90;;;;;;5048418;28;20198;-68
2023/12/05 10:55:40;;;;;;;43.57;17.23;;;2.30;95.10;;;;;;5049013;28;20220;-67
2023/12/05 10:58:09;;;;;;;47.47;18.83;;;2.20;95.30;;;;;;5047538;28;20214;-67
2023/12/05 11:00:37;;;;;;;41.93;18.33;;;2.10;95.30;;;;;;5048349;28;20808;-67
2023/12/05 11:03:04;;;;;;;43.87;19.03;;;2.00;95.10;;;;;;5047443;28;20304;-67
2023/12/05 11:05:32;;;;;;;53.30;21.13;;;1.90;95.10;;;;;;5067777;28;20242;-67
2023/12/05 11:08:00;;;;;;;48.60;20.37;;;1.80;95.10;;;;;;5071962;28;20204;-67
2023/12/05 11:10:27;;;;;;;44.50;17.70;;;1.70;95.20;;;;;;5069708;28;20204;-67
2023/12/05 11:12:55;;;;;;;36.40;16.53;;;1.60;95.30;;;;;;5067063;28;20724;-68
2023/12/05 11:15:28;;;;;;;48.77;20.17;;;1.50;95.60;;;;;;5067983;28;20291;-68
2023/12/05 11:18:00;;;;;;;56.77;21.67;;;1.50;95.70;;;;;;5041717;28;20510;-67
2023/12/05 11:20:42;;;;;;;53.07;21.73;;;1.50;95.70;;;;;;5070709;28;20280;-67
2023/12/05 11:23:27;;;;;;;56.90;24.23;;;1.50;95.60;;;;;;5052001;28;20197;-67
2023/12/05 11:26:07;;;;;;;56.00;23.03;;;1.50;95.20;;;;;;5053268;28;20275;-67
2023/12/05 11:28:53;;;;;;;51.33;22.23;;;1.50;95.00;;;;;;5070061;28;20263;-67
2023/12/05 11:31:27;;;;;;;51.47;21.33;;;1.40;95.10;;;;;;5057785;28;20628;-67
2023/12/05 11:34:16;;;;;;;48.27;20.77;;;1.40;95.10;;;;;;5069975;28;20197;-67
2023/12/05 11:36:58;;;;;;;47.80;20.63;;;1.30;95.10;;;;;;5075345;28;20193;-67
2023/12/05 11:39:26;;;;;;;45.13;20.47;;;1.30;94.90;;;;;;5052168;28;20224;-67
2023/12/05 11:42:12;;;;;;;49.00;21.10;;;1.20;94.90;;;;;;5061554;28;20296;-68
2023/12/05 11:44:40;;;;;;;46.93;19.57;;;1.20;94.90;;;;;;5040858;28;20196;-67
2023/12/05 11:47:16;;;;;;;47.83;20.07;;;1.10;94.90;;;;;;5064922;28;20335;-68
2023/12/05 11:49:53;;;;;;;46.97;19.97;;;1.10;95.00;;;;;;5046317;28;20664;-68
2023/12/05 11:52:21;;;;;;;40.87;18.20;;;1.10;95.00;;;;;;5044424;28;20213;-67
2023/12/05 11:54:51;;;;;;;40.20;17.80;;;1.00;95.00;;;;;;5069668;28;20204;-67
2023/12/05 11:57:19;;;;;;;44.67;18.57;;;1.00;95.20;;;;;;5067935;28;20203;-68
2023/12/05 11:59:47;;;;;;;49.87;20.30;;;1.00;95.20;;;;;;5051716;28;20259;-67
2023/12/05 12:02:19;;;;;;;49.90;21.00;;;1.10;95.10;;;;;;5012014;28;1116926;-68
2023/12/05 12:04:46;;;;;;;54.73;22.27;;;1.10;95.00;;;;;;5071294;28;20196;-67
2023/12/05 12:07:14;;;;;;;53.93;21.23;;;1.10;94.90;;;;;;5070499;28;20280;-67
2023/12/05 12:09:41;;;;;;;48.03;20.87;;;1.00;94.90;;;;;;5050837;28;20648;-67
2023/12/05 12:12:09;;;;;;;46.90;19.47;;;1.00;94.90;;;;;;5070298;28;20193;-67
2023/12/05 12:14:38;;;;;;;42.13;18.40;;;1.00;94.90;;;;;;5071628;28;20660;-67
2023/12/05 12:17:05;;;;;;;44.33;17.50;;;0.30;94.70;;;;;;5070182;28;20713;-66
2023/12/05 12:19:37;;;;;;;50.50;19.03;;;1.00;95.10;;;;;;5070423;28;20316;-68
2023/12/05 12:22:09;;;;;;;41.03;18.13;;;1.10;95.00;;;;;;5070292;28;20193;-66
2023/12/05 12:24:37;;;;;;;57.03;22.17;;;1.10;95.00;;;;;;5071483;28;20271;-67
2023/12/05 12:27:06;;;;;;;48.77;21.23;;;1.20;94.90;;;;;;5070443;28;20676;-67
2023/12/05 12:29:34;;;;;;;54.87;21.43;;;1.20;94.90;;;;;;5069208;28;20213;-67
2023/12/05 12:32:09;;;;;;;45.40;19.80;;;1.20;95.00;;;;;;5062538;28;20222;-68
2023/12/05 12:34:38;;;;;;;45.90;18.17;;;1.20;95.00;;;;;;5070101;28;20208;-67
2023/12/05 12:37:06;;;;;;;40.20;18.17;;;1.20;95.00;;;;;;5036387;28;20553;-68